createdAt,value
2017-11-29T00:01:11.571Z,2.23
2017-11-29T00:03:43.886Z,2.25
2017-11-29T00:06:14.847Z,2.30
2017-11-29T00:08:45.852Z,2.43
2017-11-29T00:11:17.827Z,2.55
2017-11-29T00:13:49.599Z,2.47
2017-11-29T00:16:20.698Z,2.57
2017-11-29T00:18:52.695Z,2.21
2017-11-29T00:21:24.530Z,2.20
2017-11-29T00:23:55.642Z,2.31
2017-11-29T00:26:28.905Z,2.27
2017-11-29T00:29:00.963Z,2.29
2017-11-29T00:31:35.453Z,2.60
2017-11-29T00:34:09.318Z,2.55
2017-11-29T00:36:40.624Z,2.56
2017-11-29T00:39:12.708Z,2.55
2017-11-29T00:41:45.389Z,2.52
2017-11-29T00:44:17.139Z,2.31
2017-11-29T00:46:49.216Z,2.28
2017-11-29T00:49:21.650Z,2.20
2017-11-29T00:51:53.511Z,2.23
2017-11-29T00:54:24.964Z,2.10
2017-11-29T00:56:56.202Z,2.05
2017-11-29T00:59:30.064Z,2.15
2017-11-29T01:02:02.955Z,2.14
2017-11-29T01:04:34.549Z,1.88
2017-11-29T01:07:07.030Z,2.06
2017-11-29T01:09:38.429Z,2.09
2017-11-29T01:12:11.292Z,2.02
2017-11-29T01:14:43.515Z,1.89
2017-11-29T01:17:14.681Z,1.88
2017-11-29T01:19:47.281Z,2.00
2017-11-29T01:22:18.858Z,1.92
2017-11-29T01:24:54.088Z,1.90
2017-11-29T01:27:25.109Z,1.83
2017-11-29T01:29:57.297Z,1.88
2017-11-29T01:32:33.117Z,1.97
2017-11-29T01:35:07.174Z,1.99
2017-11-29T01:37:38.994Z,2.05
2017-11-29T01:40:11.041Z,2.11
2017-11-29T01:42:42.804Z,2.27
2017-11-29T01:45:14.983Z,1.86
2017-11-29T01:47:47.396Z,1.11
2017-11-29T01:50:20.724Z,0.98
2017-11-29T01:52:52.247Z,0.84
2017-11-29T01:55:23.322Z,0.90
2017-11-29T01:57:55.302Z,0.98
2017-11-29T02:00:28.162Z,1.53
2017-11-29T02:03:00.129Z,1.48
2017-11-29T02:05:35.501Z,1.53
2017-11-29T02:08:07.085Z,1.21
2017-11-29T02:10:39.326Z,0.53
2017-11-29T02:13:16.450Z,0.65
2017-11-29T02:15:48.915Z,0.34
2017-11-29T02:18:21.581Z,0.46
2017-11-29T02:20:55.996Z,0.44
2017-11-29T02:23:33.533Z,0.81
2017-11-29T02:26:06.845Z,1.17
2017-11-29T02:28:39.604Z,1.07
2017-11-29T02:31:11.383Z,1.37
2017-11-29T02:33:43.362Z,0.91
2017-11-29T02:36:15.211Z,1.08
2017-11-29T02:38:47.320Z,1.24
2017-11-29T02:43:32.184Z,1.62
2017-11-29T02:46:03.973Z,1.36
2017-11-29T02:48:39.295Z,1.32
2017-11-29T02:51:10.691Z,1.63
2017-11-29T02:53:42.862Z,1.39
2017-11-29T02:56:15.813Z,1.44
2017-11-29T02:58:48.461Z,1.51
2017-11-29T03:01:20.184Z,1.44
2017-11-29T03:03:52.959Z,1.34
2017-11-29T03:06:24.534Z,1.44
2017-11-29T03:08:55.934Z,1.55
2017-11-29T03:11:37.148Z,1.39
2017-11-29T03:14:09.078Z,1.36
2017-11-29T03:16:40.320Z,1.29
2017-11-29T03:19:11.614Z,1.08
2017-11-29T03:21:43.585Z,1.09
2017-11-29T03:24:14.931Z,1.15
2017-11-29T03:26:45.862Z,1.13
2017-11-29T03:29:16.635Z,1.30
2017-11-29T03:31:47.363Z,1.43
2017-11-29T03:34:18.259Z,1.28
2017-11-29T03:36:49.260Z,1.54
2017-11-29T03:39:20.468Z,1.42
2017-11-29T03:41:51.406Z,1.49
2017-11-29T03:44:23.087Z,1.61
2017-11-29T03:46:54.218Z,1.44
2017-11-29T03:49:25.161Z,0.86
2017-11-29T03:51:56.180Z,1.09
2017-11-29T03:54:27.206Z,1.21
2017-11-29T03:56:57.973Z,1.09
2017-11-29T03:59:30.943Z,1.18
2017-11-29T04:02:02.320Z,1.16
2017-11-29T04:04:34.101Z,1.26
2017-11-29T04:07:05.420Z,1.44
2017-11-29T04:09:37.004Z,1.46
2017-11-29T04:12:08.191Z,1.35
2017-11-29T04:14:39.333Z,1.43
2017-11-29T04:17:11.022Z,1.29
2017-11-29T04:19:44.368Z,1.37
2017-11-29T04:22:15.559Z,1.46
2017-11-29T04:24:47.051Z,1.37
2017-11-29T04:27:18.705Z,1.08
2017-11-29T04:29:49.862Z,0.91
2017-11-29T04:32:20.647Z,0.67
2017-11-29T04:34:54.126Z,0.41
2017-11-29T04:37:24.935Z,0.40
2017-11-29T04:39:55.903Z,0.09
2017-11-29T04:42:30.261Z,-0.16
2017-11-29T04:45:01.465Z,-0.23
2017-11-29T04:47:34.819Z,0.02
2017-11-29T04:50:05.927Z,0.00
2017-11-29T04:52:37.065Z,0.03
2017-11-29T04:55:07.916Z,0.22
2017-11-29T04:57:38.776Z,0.58
2017-11-29T05:00:10.330Z,0.39
2017-11-29T05:02:42.029Z,0.22
2017-11-29T05:05:13.340Z,0.38
2017-11-29T05:07:44.593Z,0.47
2017-11-29T05:10:15.514Z,0.55
2017-11-29T05:12:46.449Z,0.43
2017-11-29T05:15:17.752Z,0.46
2017-11-29T05:17:48.854Z,0.66
2017-11-29T05:20:20.714Z,1.17
2017-11-29T05:22:52.200Z,1.27
2017-11-29T05:25:23.463Z,0.85
2017-11-29T05:27:57.162Z,0.86
2017-11-29T05:30:45.407Z,0.84
2017-11-29T05:33:17.041Z,0.70
2017-11-29T05:35:48.216Z,0.55
2017-11-29T05:38:19.853Z,0.41
2017-11-29T05:40:51.296Z,0.29
2017-11-29T05:43:22.625Z,0.44
2017-11-29T05:45:54.230Z,0.14
2017-11-29T05:48:25.372Z,0.44
2017-11-29T05:50:56.698Z,0.67
2017-11-29T05:53:31.773Z,0.54
2017-11-29T05:56:02.882Z,0.49
2017-11-29T05:58:34.548Z,0.54
2017-11-29T06:01:05.590Z,0.50
2017-11-29T06:03:37.136Z,0.41
2017-11-29T06:06:09.877Z,0.66
2017-11-29T06:08:43.865Z,0.61
2017-11-29T06:11:19.895Z,0.67
2017-11-29T06:13:52.509Z,1.11
2017-11-29T06:16:36.755Z,0.48
2017-11-29T06:19:17.589Z,0.36
2017-11-29T06:22:00.563Z,0.49
2017-11-29T06:27:25.072Z,0.28
2017-11-29T06:30:09.277Z,0.30
2017-11-29T06:32:40.826Z,0.18
2017-11-29T06:35:12.356Z,-0.01
2017-11-29T06:37:45.510Z,0.00
2017-11-29T06:40:26.587Z,-0.01
2017-11-29T06:45:48.264Z,0.13
2017-11-29T06:48:19.612Z,0.26
2017-11-29T06:53:28.054Z,0.06
2017-11-29T06:55:59.500Z,-0.06
2017-11-29T06:58:33.012Z,-0.32
2017-11-29T07:01:05.491Z,-0.36
2017-11-29T07:03:42.253Z,-0.29
2017-11-29T07:06:13.307Z,0.49
2017-11-29T07:08:44.344Z,0.61
2017-11-29T07:11:17.001Z,0.50
2017-11-29T07:13:54.793Z,0.97
2017-11-29T07:16:25.872Z,1.16
2017-11-29T07:18:57.958Z,0.59
2017-11-29T07:21:36.745Z,0.60
2017-11-29T07:24:08.245Z,1.02
2017-11-29T07:26:39.804Z,1.13
2017-11-29T07:29:11.091Z,0.70
2017-11-29T07:31:51.774Z,0.53
2017-11-29T07:34:31.109Z,0.79
2017-11-29T07:37:23.252Z,0.86
2017-11-29T07:39:59.945Z,1.17
2017-11-29T07:42:38.198Z,0.80
2017-11-29T07:45:22.335Z,1.05
2017-11-29T07:48:06.873Z,0.95
2017-11-29T07:50:49.906Z,1.32
2017-11-29T07:53:26.903Z,1.25
2017-11-29T07:56:04.077Z,1.11
2017-11-29T07:58:42.269Z,1.09
2017-11-29T08:04:03.184Z,1.68
2017-11-29T08:06:35.903Z,1.40
2017-11-29T08:09:09.899Z,1.54
2017-11-29T08:11:45.354Z,1.97
2017-11-29T08:14:18.480Z,2.17
2017-11-29T08:16:50.604Z,2.19
2017-11-29T08:19:26.234Z,1.65
2017-11-29T08:21:57.549Z,2.13
2017-11-29T08:24:28.673Z,2.14
2017-11-29T08:27:00.175Z,2.13
2017-11-29T08:29:33.993Z,2.43
2017-11-29T08:32:06.081Z,2.33
2017-11-29T08:34:38.261Z,2.22
2017-11-29T08:37:10.011Z,2.63
2017-11-29T08:39:42.000Z,2.68
2017-11-29T08:42:13.276Z,2.92
2017-11-29T08:44:45.663Z,2.87
2017-11-29T08:47:18.165Z,2.94
2017-11-29T08:49:50.533Z,2.63
2017-11-29T08:52:31.379Z,2.74
2017-11-29T08:55:07.525Z,2.85
2017-11-29T08:57:38.961Z,2.97
2017-11-29T09:00:11.044Z,3.10
2017-11-29T09:02:42.319Z,3.12
2017-11-29T09:05:14.007Z,3.20
2017-11-29T09:07:45.621Z,3.35
2017-11-29T09:10:17.491Z,3.17
2017-11-29T09:12:49.324Z,3.04
2017-11-29T09:15:20.923Z,3.18
2017-11-29T09:17:53.053Z,3.04
2017-11-29T09:20:24.559Z,3.02
2017-11-29T09:22:55.629Z,3.04
2017-11-29T09:25:29.138Z,3.25
2017-11-29T09:28:00.672Z,3.55
2017-11-29T09:30:33.756Z,3.67
2017-11-29T09:33:09.980Z,3.78
2017-11-29T09:36:12.764Z,3.91
2017-11-29T09:38:43.934Z,3.96
2017-11-29T09:41:17.057Z,4.06
2017-11-29T09:43:48.944Z,4.14
2017-11-29T09:46:21.749Z,4.14
2017-11-29T09:48:56.721Z,4.24
2017-11-29T09:51:31.463Z,4.35
2017-11-29T09:54:06.415Z,4.04
2017-11-29T09:56:38.182Z,3.81
2017-11-29T09:59:09.567Z,4.23
2017-11-29T10:01:41.713Z,4.23
2017-11-29T10:04:13.073Z,4.16
2017-11-29T10:06:44.297Z,4.21
2017-11-29T10:09:15.717Z,4.36
2017-11-29T10:11:47.036Z,3.83
2017-11-29T10:14:22.899Z,3.38
2017-11-29T10:16:55.340Z,3.87
2017-11-29T10:19:29.333Z,4.04
2017-11-29T10:22:02.018Z,3.84
2017-11-29T10:24:34.953Z,3.50
2017-11-29T10:27:06.681Z,3.51
2017-11-29T10:29:38.254Z,3.46
2017-11-29T10:32:09.821Z,3.29
2017-11-29T10:34:41.792Z,3.26
2017-11-29T10:37:13.175Z,3.24
2017-11-29T10:39:44.120Z,3.71
2017-11-29T10:42:15.545Z,3.27
2017-11-29T10:44:47.298Z,3.43
2017-11-29T10:47:18.487Z,3.29
2017-11-29T10:49:49.793Z,3.69
2017-11-29T10:52:21.087Z,3.93
2017-11-29T10:54:56.188Z,4.33
2017-11-29T11:00:04.103Z,3.78
2017-11-29T11:02:35.397Z,3.94
2017-11-29T11:05:07.587Z,4.45
2017-11-29T11:07:39.064Z,3.81
2017-11-29T11:10:11.114Z,3.30
2017-11-29T11:12:42.381Z,3.56
2017-11-29T11:15:14.035Z,3.31
2017-11-29T11:17:46.752Z,3.19
2017-11-29T11:20:18.369Z,3.08
2017-11-29T11:22:49.972Z,3.16
2017-11-29T11:25:21.100Z,2.95
2017-11-29T11:27:52.998Z,3.13
2017-11-29T11:30:24.610Z,3.05
2017-11-29T11:32:56.057Z,2.98
2017-11-29T11:35:29.207Z,2.93
2017-11-29T11:38:00.274Z,2.89
2017-11-29T11:40:31.545Z,2.98
2017-11-29T11:43:02.779Z,3.04
2017-11-29T11:45:34.872Z,3.14
2017-11-29T11:48:06.262Z,3.31
2017-11-29T11:50:37.333Z,3.40
2017-11-29T11:53:08.773Z,3.49
2017-11-29T11:55:40.089Z,3.52
2017-11-29T11:58:11.206Z,3.43
2017-11-29T12:00:42.518Z,3.49
2017-11-29T12:03:13.478Z,3.37
2017-11-29T12:05:44.745Z,3.42
2017-11-29T12:08:16.050Z,3.38
2017-11-29T12:10:47.242Z,3.37
2017-11-29T12:13:18.491Z,3.34
2017-11-29T12:15:50.107Z,3.52
2017-11-29T12:18:21.824Z,3.53
2017-11-29T12:20:53.727Z,3.55
2017-11-29T12:23:24.867Z,3.68
2017-11-29T12:25:56.059Z,3.93
2017-11-29T12:28:27.495Z,3.69
2017-11-29T12:30:59.467Z,3.64
2017-11-29T12:33:34.381Z,3.75
2017-11-29T12:36:06.976Z,3.76
2017-11-29T12:38:38.851Z,3.88
2017-11-29T12:41:10.859Z,3.97
2017-11-29T12:43:42.811Z,3.92
2017-11-29T12:46:14.354Z,3.89
2017-11-29T12:50:59.860Z,3.94
2017-11-29T12:53:37.666Z,4.43
2017-11-29T12:56:10.078Z,4.22
2017-11-29T12:58:44.916Z,4.01
2017-11-29T13:04:00.830Z,3.99
2017-11-29T13:06:36.408Z,4.05
2017-11-29T13:09:09.137Z,4.10
2017-11-29T13:11:41.591Z,4.09
2017-11-29T13:14:13.599Z,4.50
2017-11-29T13:16:45.749Z,4.45
2017-11-29T13:19:17.736Z,4.25
2017-11-29T13:21:49.330Z,4.06
2017-11-29T13:24:21.660Z,4.01
2017-11-29T13:26:53.224Z,4.11
2017-11-29T13:29:24.318Z,4.07
2017-11-29T13:31:57.208Z,4.00
2017-11-29T13:34:30.716Z,4.17
2017-11-29T13:37:03.746Z,4.61
2017-11-29T13:39:35.550Z,4.61
2017-11-29T13:42:07.988Z,4.48
2017-11-29T13:44:39.904Z,4.24
2017-11-29T13:47:11.843Z,4.41
2017-11-29T13:49:43.130Z,4.50
2017-11-29T13:52:15.048Z,4.91
2017-11-29T13:54:47.626Z,4.78
2017-11-29T13:57:18.774Z,4.63
2017-11-29T13:59:50.590Z,4.57
2017-11-29T14:02:22.377Z,4.31
2017-11-29T14:04:53.756Z,4.10
2017-11-29T14:07:26.649Z,3.76
2017-11-29T14:09:58.886Z,3.96
2017-11-29T14:12:35.690Z,3.90
2017-11-29T14:15:08.477Z,4.55
2017-11-29T14:17:39.817Z,3.95
2017-11-29T14:20:11.111Z,4.20
2017-11-29T14:22:43.985Z,3.83
2017-11-29T14:25:15.070Z,4.26
2017-11-29T14:27:47.369Z,3.81
2017-11-29T14:30:20.232Z,3.50
2017-11-29T14:32:51.882Z,3.56
2017-11-29T14:35:23.396Z,3.33
2017-11-29T14:37:55.084Z,3.26
2017-11-29T14:40:26.124Z,3.15
2017-11-29T14:42:58.278Z,3.39
2017-11-29T14:45:31.264Z,3.60
2017-11-29T14:48:02.372Z,3.17
2017-11-29T14:50:33.792Z,3.32
2017-11-29T14:53:06.788Z,3.19
2017-11-29T14:55:38.230Z,3.12
2017-11-29T14:58:10.964Z,3.19
2017-11-29T15:00:45.103Z,2.98
2017-11-29T15:03:17.172Z,3.15
2017-11-29T15:05:49.920Z,3.02
2017-11-29T15:08:20.962Z,3.04
2017-11-29T15:10:52.281Z,2.97
2017-11-29T15:13:25.298Z,3.19
2017-11-29T15:16:01.052Z,2.87
2017-11-29T15:18:32.419Z,3.00
2017-11-29T15:21:03.857Z,2.88
2017-11-29T15:23:34.860Z,3.18
2017-11-29T15:26:07.470Z,3.61
2017-11-29T15:28:44.526Z,3.65
2017-11-29T15:31:16.187Z,3.83
2017-11-29T15:33:48.255Z,3.68
2017-11-29T15:36:20.125Z,3.76
2017-11-29T15:38:52.567Z,4.14
2017-11-29T15:41:27.773Z,4.15
2017-11-29T15:43:59.322Z,4.02
2017-11-29T15:46:30.776Z,3.69
2017-11-29T15:49:02.749Z,3.25
2017-11-29T15:51:34.842Z,3.11
2017-11-29T15:54:07.100Z,3.31
2017-11-29T15:56:40.987Z,2.96
2017-11-29T15:59:15.361Z,2.91
2017-11-29T16:01:47.602Z,2.96
2017-11-29T16:04:24.149Z,2.82
2017-11-29T16:06:58.846Z,2.69
2017-11-29T16:09:33.172Z,2.76
2017-11-29T16:12:06.685Z,2.86
2017-11-29T16:14:39.496Z,2.75
2017-11-29T16:17:17.957Z,2.64
2017-11-29T16:19:52.778Z,2.69
2017-11-29T16:22:28.956Z,2.57
2017-11-29T16:25:04.357Z,2.48
2017-11-29T16:27:36.925Z,2.40
2017-11-29T16:30:12.125Z,2.37
2017-11-29T16:32:45.135Z,2.45
2017-11-29T16:35:22.914Z,2.48
2017-11-29T16:38:04.587Z,2.40
2017-11-29T16:40:37.819Z,2.32
2017-11-29T16:43:11.377Z,2.40
2017-11-29T16:45:49.796Z,2.47
2017-11-29T16:48:22.043Z,3.03
2017-11-29T16:51:04.169Z,3.49
2017-11-29T16:53:41.030Z,2.95
2017-11-29T16:56:14.983Z,2.91
2017-11-29T16:58:52.210Z,2.61
2017-11-29T17:01:34.422Z,2.97
2017-11-29T17:04:08.814Z,2.82
2017-11-29T17:06:58.237Z,2.70
2017-11-29T17:09:38.469Z,2.52
2017-11-29T17:12:19.224Z,2.88
2017-11-29T17:14:54.568Z,3.41
2017-11-29T17:17:29.434Z,3.80
2017-11-29T17:20:01.964Z,3.96
2017-11-29T17:22:36.515Z,3.20
2017-11-29T17:25:11.970Z,3.13
2017-11-29T17:27:49.665Z,3.23
2017-11-29T17:30:25.151Z,3.87
2017-11-29T17:32:58.916Z,3.63
2017-11-29T17:42:45.068Z,3.53
2017-11-29T17:57:40.235Z,4.51
2017-11-29T18:00:14.288Z,4.26
2017-11-29T18:02:46.207Z,4.20
2017-11-29T18:05:18.154Z,4.10
2017-11-29T18:07:49.608Z,4.09
2017-11-29T18:10:21.809Z,3.81
2017-11-29T18:12:53.529Z,3.88
2017-11-29T18:15:25.244Z,3.70
2017-11-29T18:17:57.399Z,2.79
2017-11-29T18:20:32.649Z,2.37
2017-11-29T18:23:05.456Z,2.05
2017-11-29T18:25:37.926Z,2.07
2017-11-29T18:28:09.814Z,1.98
2017-11-29T18:30:44.323Z,2.01
2017-11-29T18:33:16.221Z,2.16
2017-11-29T18:35:47.887Z,3.04
2017-11-29T18:38:19.635Z,2.76
2017-11-29T18:40:51.362Z,1.77
2017-11-29T18:43:22.864Z,1.90
2017-11-29T18:45:56.282Z,2.53
2017-11-29T18:48:30.879Z,2.95
2017-11-29T18:51:04.793Z,2.70
2017-11-29T18:53:36.154Z,2.30
2017-11-29T18:56:07.702Z,1.90
2017-11-29T18:58:41.646Z,1.78
2017-11-29T19:01:16.520Z,1.72
2017-11-29T19:03:47.545Z,1.92
2017-11-29T19:06:19.891Z,2.39
2017-11-29T19:08:51.835Z,2.04
2017-11-29T19:11:24.420Z,2.03
2017-11-29T19:13:56.273Z,2.24
2017-11-29T19:19:09.087Z,2.42
2017-11-29T19:21:44.539Z,2.44
2017-11-29T19:24:17.237Z,2.58
2017-11-29T19:26:50.779Z,2.77
2017-11-29T19:29:26.170Z,2.70
2017-11-29T19:34:44.943Z,3.11
2017-11-29T19:37:50.234Z,2.83
2017-11-29T19:40:22.517Z,2.76
2017-11-29T19:43:31.892Z,3.25
2017-11-29T19:46:25.749Z,3.64
2017-11-29T19:49:14.017Z,3.72
2017-11-29T19:51:58.211Z,3.11
2017-11-29T19:54:33.468Z,2.99
2017-11-29T19:57:04.590Z,3.51
2017-11-29T19:59:36.043Z,3.59
2017-11-29T20:02:07.323Z,4.08
2017-11-29T20:04:39.698Z,3.57
2017-11-29T20:07:13.777Z,3.54
2017-11-29T20:09:47.592Z,3.55
2017-11-29T20:12:20.601Z,3.67
2017-11-29T20:14:52.717Z,3.49
2017-11-29T20:17:30.517Z,3.67
2017-11-29T20:20:02.847Z,3.50
2017-11-29T20:22:37.555Z,3.67
2017-11-29T20:25:12.164Z,3.50
2017-11-29T20:27:44.474Z,3.20
2017-11-29T20:30:20.608Z,3.12
2017-11-29T20:32:56.253Z,3.23
2017-11-29T20:35:32.815Z,3.22
2017-11-29T20:38:06.273Z,3.27
2017-11-29T20:40:37.647Z,2.95
2017-11-29T20:43:11.574Z,2.95
2017-11-29T20:45:46.877Z,2.98
2017-11-29T20:48:21.782Z,2.97
2017-11-29T20:50:53.742Z,2.90
2017-11-29T20:53:24.725Z,2.88
2017-11-29T20:55:56.462Z,2.54
2017-11-29T20:58:28.170Z,2.83
2017-11-29T21:01:01.411Z,3.16
2017-11-29T21:03:33.219Z,3.02
2017-11-29T21:06:05.759Z,3.22
2017-11-29T21:08:38.240Z,3.11
2017-11-29T21:13:34.515Z,2.88
2017-11-29T21:16:06.542Z,3.02
2017-11-29T21:18:38.238Z,3.11
2017-11-29T21:21:10.329Z,2.76
2017-11-29T21:23:41.405Z,2.86
2017-11-29T21:26:13.058Z,2.85
2017-11-29T21:28:48.857Z,2.93
2017-11-29T21:31:21.633Z,2.66
2017-11-29T21:33:53.734Z,2.64
2017-11-29T21:36:27.058Z,2.54
2017-11-29T21:38:59.322Z,3.00
2017-11-29T21:41:30.999Z,2.88
2017-11-29T21:44:03.620Z,2.54
2017-11-29T21:46:34.889Z,2.61
2017-11-29T21:49:07.428Z,2.62
2017-11-29T21:51:38.478Z,2.58
2017-11-29T21:54:09.973Z,2.64
2017-11-29T21:56:41.288Z,2.89
2017-11-29T21:59:12.326Z,2.78
2017-11-29T22:01:44.301Z,2.58
2017-11-29T22:04:16.348Z,2.37
2017-11-29T22:06:49.860Z,2.60
2017-11-29T22:09:30.105Z,2.26
2017-11-29T22:12:01.121Z,2.13
2017-11-29T22:14:32.450Z,1.67
2017-11-29T22:17:05.172Z,1.75
2017-11-29T22:19:36.618Z,1.89
2017-11-29T22:28:39.336Z,1.94
2017-11-29T22:31:27.015Z,1.41
2017-11-29T22:33:58.708Z,1.04
2017-11-29T22:36:29.760Z,1.47
2017-11-29T22:39:01.094Z,1.61
2017-11-29T22:41:32.040Z,1.28
2017-11-29T22:44:03.452Z,0.81
2017-11-29T22:46:34.742Z,1.43
2017-11-29T22:49:05.146Z,1.46
2017-11-29T22:51:36.186Z,1.56
2017-11-29T22:54:07.815Z,1.87
2017-11-29T22:56:38.786Z,1.52
2017-11-29T23:07:23.599Z,2.06
2017-11-29T23:09:57.825Z,2.65
2017-11-29T23:12:37.055Z,2.39
2017-11-29T23:15:09.021Z,2.34
2017-11-29T23:17:40.459Z,2.39
2017-11-29T23:20:12.959Z,2.26
2017-11-29T23:22:44.233Z,2.22
2017-11-29T23:25:15.237Z,2.24
2017-11-29T23:27:46.539Z,2.49
2017-11-29T23:30:17.933Z,2.49
2017-11-29T23:32:49.696Z,2.09
2017-11-29T23:35:20.996Z,2.31
2017-11-29T23:37:52.067Z,2.40
2017-11-29T23:40:23.199Z,2.15
2017-11-29T23:42:54.554Z,2.31
2017-11-29T23:45:26.138Z,2.27
2017-11-29T23:47:57.408Z,2.09
2017-11-29T23:50:28.465Z,2.15
2017-11-29T23:52:59.357Z,2.07
2017-11-29T23:55:30.325Z,2.08
2017-11-29T23:58:01.170Z,2.10
